sensor_id;sensor_type;location;lat;lon;timestamp;P1;durP1;ratioP1;P2;durP2;ratioP2
14191;SDS011;7177;48.572;7.838;2022-12-05T00:01:26;47.77;;;28.20;;
14191;SDS011;7177;48.572;7.838;2022-12-05T00:04:00;51.47;;;29.38;;
14191;SDS011;7177;48.572;7.838;2022-12-05T00:06:28;54.90;;;29.23;;
14191;SDS011;7177;48.572;7.838;2022-12-05T00:08:55;46.33;;;26.52;;
14191;SDS011;7177;48.572;7.838;2022-12-05T00:11:23;49.60;;;28.02;;
14191;SDS011;7177;48.572;7.838;2022-12-05T00:13:51;46.95;;;27.20;;
14191;SDS011;7177;48.572;7.838;2022-12-05T00:16:18;45.78;;;26.15;;
14191;SDS011;7177;48.572;7.838;2022-12-05T00:18:45;49.47;;;28.15;;
14191;SDS011;7177;48.572;7.838;2022-12-05T00:21:18;47.65;;;28.08;;
14191;SDS011;7177;48.572;7.838;2022-12-05T00:23:45;49.72;;;28.55;;
14191;SDS011;7177;48.572;7.838;2022-12-05T00:26:11;44.47;;;27.13;;
14191;SDS011;7177;48.572;7.838;2022-12-05T00:28:38;45.55;;;28.48;;
14191;SDS011;7177;48.572;7.838;2022-12-05T00:31:05;45.95;;;26.73;;
14191;SDS011;7177;48.572;7.838;2022-12-05T00:33:32;44.70;;;27.08;;
14191;SDS011;7177;48.572;7.838;2022-12-05T00:36:11;44.53;;;25.17;;
14191;SDS011;7177;48.572;7.838;2022-12-05T00:38:40;42.85;;;27.40;;
14191;SDS011;7177;48.572;7.838;2022-12-05T00:41:07;45.77;;;26.80;;
14191;SDS011;7177;48.572;7.838;2022-12-05T00:43:34;46.35;;;26.10;;
14191;SDS011;7177;48.572;7.838;2022-12-05T00:46:07;46.30;;;26.60;;
14191;SDS011;7177;48.572;7.838;2022-12-05T00:48:34;43.65;;;26.08;;
14191;SDS011;7177;48.572;7.838;2022-12-05T00:53:27;40.88;;;24.52;;
14191;SDS011;7177;48.572;7.838;2022-12-05T00:55:53;42.00;;;25.27;;
14191;SDS011;7177;48.572;7.838;2022-12-05T00:58:19;39.80;;;25.03;;
14191;SDS011;7177;48.572;7.838;2022-12-05T01:00:44;43.00;;;26.07;;
14191;SDS011;7177;48.572;7.838;2022-12-05T01:03:10;41.07;;;24.97;;
14191;SDS011;7177;48.572;7.838;2022-12-05T01:05:35;41.83;;;25.03;;
14191;SDS011;7177;48.572;7.838;2022-12-05T01:08:01;43.03;;;25.30;;
14191;SDS011;7177;48.572;7.838;2022-12-05T01:10:27;43.70;;;26.60;;
14191;SDS011;7177;48.572;7.838;2022-12-05T01:12:52;40.10;;;24.23;;
14191;SDS011;7177;48.572;7.838;2022-12-05T01:15:18;41.53;;;24.97;;
14191;SDS011;7177;48.572;7.838;2022-12-05T01:17:43;46.97;;;27.20;;
14191;SDS011;7177;48.572;7.838;2022-12-05T01:20:09;45.40;;;26.20;;
14191;SDS011;7177;48.572;7.838;2022-12-05T01:22:35;43.65;;;26.70;;
14191;SDS011;7177;48.572;7.838;2022-12-05T01:25:00;42.00;;;25.27;;
14191;SDS011;7177;48.572;7.838;2022-12-05T01:27:26;40.22;;;24.40;;
14191;SDS011;7177;48.572;7.838;2022-12-05T01:29:52;37.87;;;24.17;;
14191;SDS011;7177;48.572;7.838;2022-12-05T01:32:18;43.03;;;25.80;;
14191;SDS011;7177;48.572;7.838;2022-12-05T01:34:43;44.40;;;25.77;;
14191;SDS011;7177;48.572;7.838;2022-12-05T01:37:09;38.20;;;24.40;;
14191;SDS011;7177;48.572;7.838;2022-12-05T01:39:34;40.63;;;25.47;;
14191;SDS011;7177;48.572;7.838;2022-12-05T01:42:00;38.70;;;23.10;;
14191;SDS011;7177;48.572;7.838;2022-12-05T01:46:51;43.10;;;23.87;;
14191;SDS011;7177;48.572;7.838;2022-12-05T01:49:36;38.25;;;24.25;;
14191;SDS011;7177;48.572;7.838;2022-12-05T01:52:06;39.25;;;24.63;;
14191;SDS011;7177;48.572;7.838;2022-12-05T01:54:38;35.95;;;22.98;;
14191;SDS011;7177;48.572;7.838;2022-12-05T01:57:05;44.13;;;25.77;;
14191;SDS011;7177;48.572;7.838;2022-12-05T01:59:35;41.90;;;24.63;;
14191;SDS011;7177;48.572;7.838;2022-12-05T02:02:04;39.50;;;25.13;;
14191;SDS011;7177;48.572;7.838;2022-12-05T02:04:32;45.45;;;25.23;;
14191;SDS011;7177;48.572;7.838;2022-12-05T02:07:02;39.20;;;25.15;;
14191;SDS011;7177;48.572;7.838;2022-12-05T02:09:28;39.37;;;25.43;;
14191;SDS011;7177;48.572;7.838;2022-12-05T02:11:54;43.63;;;25.00;;
14191;SDS011;7177;48.572;7.838;2022-12-05T02:22:36;42.58;;;25.80;;
14191;SDS011;7177;48.572;7.838;2022-12-05T02:37:04;37.38;;;23.10;;
14191;SDS011;7177;48.572;7.838;2022-12-05T02:42:27;38.05;;;23.63;;
14191;SDS011;7177;48.572;7.838;2022-12-05T02:45:00;36.80;;;22.50;;
14191;SDS011;7177;48.572;7.838;2022-12-05T02:47:31;36.30;;;23.90;;
14191;SDS011;7177;48.572;7.838;2022-12-05T02:50:02;36.13;;;23.25;;
14191;SDS011;7177;48.572;7.838;2022-12-05T02:52:28;36.47;;;22.67;;
14191;SDS011;7177;48.572;7.838;2022-12-05T02:54:55;40.60;;;23.95;;
14191;SDS011;7177;48.572;7.838;2022-12-05T02:57:22;36.92;;;24.38;;
14191;SDS011;7177;48.572;7.838;2022-12-05T02:59:50;37.22;;;22.77;;
14191;SDS011;7177;48.572;7.838;2022-12-05T03:04:49;33.45;;;21.25;;
14191;SDS011;7177;48.572;7.838;2022-12-05T03:07:15;37.50;;;23.30;;
14191;SDS011;7177;48.572;7.838;2022-12-05T03:09:42;38.00;;;22.73;;
14191;SDS011;7177;48.572;7.838;2022-12-05T03:12:15;32.55;;;19.67;;
14191;SDS011;7177;48.572;7.838;2022-12-05T03:14:52;37.13;;;21.85;;
14191;SDS011;7177;48.572;7.838;2022-12-05T03:17:24;33.42;;;20.90;;
14191;SDS011;7177;48.572;7.838;2022-12-05T03:20:05;33.92;;;20.80;;
14191;SDS011;7177;48.572;7.838;2022-12-05T03:22:42;34.92;;;22.08;;
14191;SDS011;7177;48.572;7.838;2022-12-05T03:25:14;34.10;;;20.77;;
14191;SDS011;7177;48.572;7.838;2022-12-05T03:30:26;32.10;;;20.08;;
14191;SDS011;7177;48.572;7.838;2022-12-05T03:33:05;36.90;;;21.90;;
14191;SDS011;7177;48.572;7.838;2022-12-05T03:38:24;31.90;;;20.15;;
14191;SDS011;7177;48.572;7.838;2022-12-05T03:47:24;29.92;;;18.75;;
14191;SDS011;7177;48.572;7.838;2022-12-05T03:52:02;32.63;;;20.00;;
14191;SDS011;7177;48.572;7.838;2022-12-05T03:54:55;32.33;;;20.77;;
14191;SDS011;7177;48.572;7.838;2022-12-05T03:57:25;35.42;;;21.73;;
14191;SDS011;7177;48.572;7.838;2022-12-05T03:59:58;34.80;;;20.27;;
14191;SDS011;7177;48.572;7.838;2022-12-05T04:02:37;33.97;;;21.42;;
14191;SDS011;7177;48.572;7.838;2022-12-05T04:08:19;33.80;;;20.35;;
14191;SDS011;7177;48.572;7.838;2022-12-05T04:10:50;33.22;;;18.73;;
14191;SDS011;7177;48.572;7.838;2022-12-05T04:19:05;32.22;;;19.92;;
14191;SDS011;7177;48.572;7.838;2022-12-05T04:21:44;35.58;;;20.00;;
14191;SDS011;7177;48.572;7.838;2022-12-05T04:24:21;39.80;;;22.63;;
14191;SDS011;7177;48.572;7.838;2022-12-05T04:29:56;36.88;;;21.33;;
14191;SDS011;7177;48.572;7.838;2022-12-05T04:35:13;38.33;;;22.63;;
14191;SDS011;7177;48.572;7.838;2022-12-05T04:38:19;35.10;;;19.95;;
14191;SDS011;7177;48.572;7.838;2022-12-05T04:40:55;37.92;;;21.23;;
14191;SDS011;7177;48.572;7.838;2022-12-05T04:43:27;41.58;;;22.45;;
14191;SDS011;7177;48.572;7.838;2022-12-05T04:45:56;41.53;;;22.73;;
14191;SDS011;7177;48.572;7.838;2022-12-05T04:48:24;40.58;;;23.05;;
14191;SDS011;7177;48.572;7.838;2022-12-05T04:50:52;37.03;;;21.77;;
14191;SDS011;7177;48.572;7.838;2022-12-05T04:53:19;38.88;;;21.02;;
14191;SDS011;7177;48.572;7.838;2022-12-05T04:55:48;38.92;;;23.42;;
14191;SDS011;7177;48.572;7.838;2022-12-05T04:58:20;36.90;;;22.20;;
14191;SDS011;7177;48.572;7.838;2022-12-05T05:03:42;36.15;;;22.27;;
14191;SDS011;7177;48.572;7.838;2022-12-05T05:06:22;40.70;;;23.88;;
14191;SDS011;7177;48.572;7.838;2022-12-05T05:08:48;40.93;;;22.00;;
14191;SDS011;7177;48.572;7.838;2022-12-05T05:11:24;32.22;;;21.20;;
14191;SDS011;7177;48.572;7.838;2022-12-05T05:13:51;36.30;;;22.65;;
14191;SDS011;7177;48.572;7.838;2022-12-05T05:16:21;35.83;;;21.38;;
14191;SDS011;7177;48.572;7.838;2022-12-05T05:18:51;36.70;;;21.67;;
14191;SDS011;7177;48.572;7.838;2022-12-05T05:21:25;31.83;;;20.77;;
14191;SDS011;7177;48.572;7.838;2022-12-05T05:23:59;35.33;;;21.90;;
14191;SDS011;7177;48.572;7.838;2022-12-05T05:26:25;36.85;;;21.42;;
14191;SDS011;7177;48.572;7.838;2022-12-05T05:28:52;39.85;;;21.83;;
14191;SDS011;7177;48.572;7.838;2022-12-05T05:31:18;34.10;;;22.00;;
14191;SDS011;7177;48.572;7.838;2022-12-05T05:33:48;38.42;;;22.50;;
14191;SDS011;7177;48.572;7.838;2022-12-05T05:36:14;38.03;;;22.10;;
14191;SDS011;7177;48.572;7.838;2022-12-05T05:38:41;34.20;;;20.87;;
14191;SDS011;7177;48.572;7.838;2022-12-05T05:41:15;37.97;;;21.98;;
14191;SDS011;7177;48.572;7.838;2022-12-05T05:43:42;40.72;;;22.15;;
14191;SDS011;7177;48.572;7.838;2022-12-05T05:46:09;36.47;;;22.35;;
14191;SDS011;7177;48.572;7.838;2022-12-05T05:48:35;39.20;;;22.65;;
14191;SDS011;7177;48.572;7.838;2022-12-05T05:51:02;38.25;;;23.77;;
14191;SDS011;7177;48.572;7.838;2022-12-05T05:53:29;38.80;;;22.35;;
14191;SDS011;7177;48.572;7.838;2022-12-05T05:55:54;36.77;;;22.77;;
14191;SDS011;7177;48.572;7.838;2022-12-05T05:58:20;36.13;;;21.50;;
14191;SDS011;7177;48.572;7.838;2022-12-05T06:00:46;33.08;;;21.05;;
14191;SDS011;7177;48.572;7.838;2022-12-05T06:03:12;37.23;;;22.70;;
14191;SDS011;7177;48.572;7.838;2022-12-05T06:05:37;36.77;;;22.50;;
14191;SDS011;7177;48.572;7.838;2022-12-05T06:08:03;35.70;;;21.73;;
14191;SDS011;7177;48.572;7.838;2022-12-05T06:10:29;40.87;;;23.03;;
14191;SDS011;7177;48.572;7.838;2022-12-05T06:12:55;35.77;;;22.47;;
14191;SDS011;7177;48.572;7.838;2022-12-05T06:15:21;38.38;;;22.85;;
14191;SDS011;7177;48.572;7.838;2022-12-05T06:17:46;38.60;;;23.10;;
14191;SDS011;7177;48.572;7.838;2022-12-05T06:20:12;34.73;;;21.37;;
14191;SDS011;7177;48.572;7.838;2022-12-05T06:22:37;34.87;;;22.00;;
14191;SDS011;7177;48.572;7.838;2022-12-05T06:25:03;35.70;;;20.37;;
14191;SDS011;7177;48.572;7.838;2022-12-05T06:27:30;38.92;;;22.48;;
14191;SDS011;7177;48.572;7.838;2022-12-05T06:29:56;32.85;;;21.75;;
14191;SDS011;7177;48.572;7.838;2022-12-05T06:32:21;39.43;;;22.97;;
14191;SDS011;7177;48.572;7.838;2022-12-05T06:34:47;38.70;;;23.37;;
14191;SDS011;7177;48.572;7.838;2022-12-05T06:37:13;34.83;;;22.13;;
14191;SDS011;7177;48.572;7.838;2022-12-05T06:39:38;40.00;;;23.13;;
14191;SDS011;7177;48.572;7.838;2022-12-05T06:42:04;35.57;;;21.93;;
14191;SDS011;7177;48.572;7.838;2022-12-05T06:44:30;38.13;;;23.10;;
14191;SDS011;7177;48.572;7.838;2022-12-05T06:46:55;35.33;;;21.70;;
14191;SDS011;7177;48.572;7.838;2022-12-05T06:49:21;37.50;;;22.90;;
14191;SDS011;7177;48.572;7.838;2022-12-05T06:51:50;38.50;;;22.67;;
14191;SDS011;7177;48.572;7.838;2022-12-05T06:54:18;35.20;;;22.10;;
14191;SDS011;7177;48.572;7.838;2022-12-05T06:56:44;37.93;;;23.47;;
14191;SDS011;7177;48.572;7.838;2022-12-05T06:59:09;36.77;;;21.53;;
14191;SDS011;7177;48.572;7.838;2022-12-05T07:01:35;36.60;;;22.53;;
14191;SDS011;7177;48.572;7.838;2022-12-05T07:04:10;36.58;;;22.42;;
14191;SDS011;7177;48.572;7.838;2022-12-05T07:06:37;33.33;;;21.25;;
14191;SDS011;7177;48.572;7.838;2022-12-05T07:09:03;36.88;;;22.63;;
14191;SDS011;7177;48.572;7.838;2022-12-05T07:11:29;47.83;;;23.90;;
14191;SDS011;7177;48.572;7.838;2022-12-05T07:13:55;46.07;;;26.50;;
14191;SDS011;7177;48.572;7.838;2022-12-05T07:16:21;45.33;;;26.80;;
14191;SDS011;7177;48.572;7.838;2022-12-05T07:18:46;41.00;;;26.67;;
14191;SDS011;7177;48.572;7.838;2022-12-05T07:21:13;40.30;;;24.40;;
14191;SDS011;7177;48.572;7.838;2022-12-05T07:23:40;35.30;;;23.15;;
14191;SDS011;7177;48.572;7.838;2022-12-05T07:26:08;34.47;;;22.23;;
14191;SDS011;7177;48.572;7.838;2022-12-05T07:28:35;39.72;;;22.80;;
14191;SDS011;7177;48.572;7.838;2022-12-05T07:31:01;35.23;;;21.97;;
14191;SDS011;7177;48.572;7.838;2022-12-05T07:33:28;32.35;;;20.92;;
14191;SDS011;7177;48.572;7.838;2022-12-05T07:36:00;32.17;;;22.10;;
14191;SDS011;7177;48.572;7.838;2022-12-05T07:38:27;35.20;;;22.77;;
14191;SDS011;7177;48.572;7.838;2022-12-05T07:40:53;36.20;;;23.17;;
14191;SDS011;7177;48.572;7.838;2022-12-05T07:43:18;34.87;;;21.97;;
14191;SDS011;7177;48.572;7.838;2022-12-05T07:45:44;33.77;;;22.77;;
14191;SDS011;7177;48.572;7.838;2022-12-05T07:48:10;33.73;;;22.07;;
14191;SDS011;7177;48.572;7.838;2022-12-05T07:50:35;37.70;;;24.07;;
14191;SDS011;7177;48.572;7.838;2022-12-05T07:53:01;33.73;;;22.43;;
14191;SDS011;7177;48.572;7.838;2022-12-05T07:55:27;38.85;;;24.30;;
14191;SDS011;7177;48.572;7.838;2022-12-05T07:57:53;37.97;;;23.97;;
14191;SDS011;7177;48.572;7.838;2022-12-05T08:00:18;37.93;;;23.17;;
14191;SDS011;7177;48.572;7.838;2022-12-05T08:02:45;32.83;;;21.73;;
14191;SDS011;7177;48.572;7.838;2022-12-05T08:05:10;34.17;;;21.73;;
14191;SDS011;7177;48.572;7.838;2022-12-05T08:07:36;37.67;;;24.03;;
14191;SDS011;7177;48.572;7.838;2022-12-05T08:10:01;32.90;;;20.93;;
14191;SDS011;7177;48.572;7.838;2022-12-05T08:12:27;29.37;;;20.00;;
14191;SDS011;7177;48.572;7.838;2022-12-05T08:14:53;31.40;;;20.50;;
14191;SDS011;7177;48.572;7.838;2022-12-05T08:17:18;35.23;;;22.83;;
14191;SDS011;7177;48.572;7.838;2022-12-05T08:19:44;37.87;;;22.83;;
14191;SDS011;7177;48.572;7.838;2022-12-05T08:22:09;34.73;;;22.17;;
14191;SDS011;7177;48.572;7.838;2022-12-05T08:24:35;36.60;;;21.93;;
14191;SDS011;7177;48.572;7.838;2022-12-05T08:27:00;30.63;;;20.47;;
14191;SDS011;7177;48.572;7.838;2022-12-05T08:29:27;32.22;;;21.08;;
14191;SDS011;7177;48.572;7.838;2022-12-05T08:31:53;32.50;;;21.43;;
14191;SDS011;7177;48.572;7.838;2022-12-05T08:34:19;36.57;;;22.47;;
14191;SDS011;7177;48.572;7.838;2022-12-05T08:36:44;31.27;;;20.63;;
14191;SDS011;7177;48.572;7.838;2022-12-05T08:39:12;28.95;;;19.65;;
14191;SDS011;7177;48.572;7.838;2022-12-05T08:41:40;30.95;;;19.75;;
14191;SDS011;7177;48.572;7.838;2022-12-05T08:44:09;35.45;;;23.48;;
14191;SDS011;7177;48.572;7.838;2022-12-05T08:46:40;36.65;;;24.27;;
14191;SDS011;7177;48.572;7.838;2022-12-05T08:49:06;39.78;;;24.98;;
14191;SDS011;7177;48.572;7.838;2022-12-05T08:51:32;37.33;;;23.93;;
14191;SDS011;7177;48.572;7.838;2022-12-05T08:54:00;38.05;;;23.27;;
14191;SDS011;7177;48.572;7.838;2022-12-05T08:56:27;33.85;;;22.75;;
14191;SDS011;7177;48.572;7.838;2022-12-05T08:58:53;32.70;;;21.67;;
14191;SDS011;7177;48.572;7.838;2022-12-05T09:01:19;37.08;;;23.88;;
14191;SDS011;7177;48.572;7.838;2022-12-05T09:03:45;36.20;;;24.58;;
14191;SDS011;7177;48.572;7.838;2022-12-05T09:06:18;34.92;;;23.38;;
14191;SDS011;7177;48.572;7.838;2022-12-05T09:08:45;37.50;;;23.13;;
14191;SDS011;7177;48.572;7.838;2022-12-05T09:11:18;38.65;;;24.00;;
14191;SDS011;7177;48.572;7.838;2022-12-05T09:13:47;36.30;;;24.80;;
14191;SDS011;7177;48.572;7.838;2022-12-05T09:16:15;38.80;;;23.58;;
14191;SDS011;7177;48.572;7.838;2022-12-05T09:18:46;35.13;;;23.33;;
14191;SDS011;7177;48.572;7.838;2022-12-05T09:21:14;34.42;;;21.98;;
14191;SDS011;7177;48.572;7.838;2022-12-05T09:23:42;33.20;;;23.33;;
14191;SDS011;7177;48.572;7.838;2022-12-05T09:26:09;34.67;;;23.53;;
14191;SDS011;7177;48.572;7.838;2022-12-05T09:28:36;31.90;;;21.20;;
14191;SDS011;7177;48.572;7.838;2022-12-05T09:31:03;37.90;;;22.93;;
14191;SDS011;7177;48.572;7.838;2022-12-05T09:33:31;35.87;;;23.33;;
14191;SDS011;7177;48.572;7.838;2022-12-05T09:36:02;35.90;;;22.67;;
14191;SDS011;7177;48.572;7.838;2022-12-05T09:38:37;34.60;;;20.73;;
14191;SDS011;7177;48.572;7.838;2022-12-05T09:43:48;28.47;;;20.70;;
14191;SDS011;7177;48.572;7.838;2022-12-05T09:46:28;28.90;;;21.37;;
14191;SDS011;7177;48.572;7.838;2022-12-05T09:49:07;30.10;;;20.10;;
14191;SDS011;7177;48.572;7.838;2022-12-05T09:51:35;28.60;;;18.90;;
14191;SDS011;7177;48.572;7.838;2022-12-05T09:54:06;28.73;;;19.17;;
14191;SDS011;7177;48.572;7.838;2022-12-05T09:56:33;24.63;;;17.20;;
14191;SDS011;7177;48.572;7.838;2022-12-05T09:58:59;26.73;;;17.67;;
14191;SDS011;7177;48.572;7.838;2022-12-05T10:01:31;25.53;;;17.03;;
14191;SDS011;7177;48.572;7.838;2022-12-05T10:06:46;29.00;;;17.20;;
14191;SDS011;7177;48.572;7.838;2022-12-05T10:19:51;26.20;;;16.70;;
14191;SDS011;7177;48.572;7.838;2022-12-05T10:25:24;26.10;;;16.30;;
14191;SDS011;7177;48.572;7.838;2022-12-05T10:27:52;21.37;;;14.53;;
14191;SDS011;7177;48.572;7.838;2022-12-05T10:30:22;23.00;;;15.03;;
14191;SDS011;7177;48.572;7.838;2022-12-05T10:32:52;19.03;;;13.30;;
14191;SDS011;7177;48.572;7.838;2022-12-05T10:38:10;17.73;;;13.27;;
14191;SDS011;7177;48.572;7.838;2022-12-05T10:40:44;18.77;;;12.87;;
14191;SDS011;7177;48.572;7.838;2022-12-05T10:43:17;20.37;;;12.10;;
14191;SDS011;7177;48.572;7.838;2022-12-05T10:45:48;16.23;;;11.90;;
14191;SDS011;7177;48.572;7.838;2022-12-05T10:48:15;15.77;;;11.47;;
14191;SDS011;7177;48.572;7.838;2022-12-05T10:50:43;15.23;;;10.60;;
14191;SDS011;7177;48.572;7.838;2022-12-05T10:53:14;15.43;;;10.50;;
14191;SDS011;7177;48.572;7.838;2022-12-05T10:55:43;14.07;;;9.23;;
14191;SDS011;7177;48.572;7.838;2022-12-05T11:00:42;10.83;;;9.00;;
14191;SDS011;7177;48.572;7.838;2022-12-05T11:03:21;12.97;;;9.67;;
14191;SDS011;7177;48.572;7.838;2022-12-05T11:05:53;13.20;;;9.63;;
14191;SDS011;7177;48.572;7.838;2022-12-05T11:08:25;12.23;;;9.40;;
14191;SDS011;7177;48.572;7.838;2022-12-05T11:11:37;13.07;;;9.37;;
14191;SDS011;7177;48.572;7.838;2022-12-05T11:14:19;14.23;;;10.13;;
14191;SDS011;7177;48.572;7.838;2022-12-05T11:16:55;17.27;;;11.77;;
14191;SDS011;7177;48.572;7.838;2022-12-05T11:19:36;14.03;;;9.70;;
14191;SDS011;7177;48.572;7.838;2022-12-05T11:22:02;14.23;;;9.77;;
14191;SDS011;7177;48.572;7.838;2022-12-05T11:24:30;17.27;;;9.97;;
14191;SDS011;7177;48.572;7.838;2022-12-05T11:27:20;11.13;;;8.63;;
14191;SDS011;7177;48.572;7.838;2022-12-05T11:30:15;12.00;;;8.80;;
14191;SDS011;7177;48.572;7.838;2022-12-05T11:32:44;12.83;;;9.20;;
14191;SDS011;7177;48.572;7.838;2022-12-05T11:56:42;13.63;;;9.60;;
14191;SDS011;7177;48.572;7.838;2022-12-05T12:05:11;15.37;;;11.10;;
14191;SDS011;7177;48.572;7.838;2022-12-05T12:13:55;13.43;;;10.00;;
14191;SDS011;7177;48.572;7.838;2022-12-05T12:16:48;13.63;;;10.20;;
14191;SDS011;7177;48.572;7.838;2022-12-05T12:24:38;14.03;;;10.50;;
14191;SDS011;7177;48.572;7.838;2022-12-05T12:27:35;15.97;;;10.87;;
14191;SDS011;7177;48.572;7.838;2022-12-05T12:32:51;12.53;;;9.97;;
14191;SDS011;7177;48.572;7.838;2022-12-05T12:35:52;12.70;;;10.07;;
14191;SDS011;7177;48.572;7.838;2022-12-05T12:47:02;15.60;;;10.53;;
14191;SDS011;7177;48.572;7.838;2022-12-05T12:49:41;16.37;;;10.57;;
14191;SDS011;7177;48.572;7.838;2022-12-05T12:52:22;16.07;;;10.90;;
14191;SDS011;7177;48.572;7.838;2022-12-05T12:55:13;13.70;;;9.63;;
14191;SDS011;7177;48.572;7.838;2022-12-05T12:58:04;14.60;;;9.80;;
14191;SDS011;7177;48.572;7.838;2022-12-05T13:00:48;15.30;;;10.43;;
14191;SDS011;7177;48.572;7.838;2022-12-05T13:03:26;15.27;;;11.13;;
14191;SDS011;7177;48.572;7.838;2022-12-05T13:06:14;18.43;;;10.60;;
14191;SDS011;7177;48.572;7.838;2022-12-05T13:08:49;16.67;;;11.63;;
14191;SDS011;7177;48.572;7.838;2022-12-05T13:11:21;17.47;;;11.60;;
14191;SDS011;7177;48.572;7.838;2022-12-05T13:13:49;15.90;;;10.67;;
14191;SDS011;7177;48.572;7.838;2022-12-05T13:16:24;15.63;;;11.27;;
14191;SDS011;7177;48.572;7.838;2022-12-05T13:18:59;13.27;;;9.07;;
14191;SDS011;7177;48.572;7.838;2022-12-05T13:21:26;12.87;;;9.07;;
14191;SDS011;7177;48.572;7.838;2022-12-05T13:23:54;11.83;;;8.73;;
14191;SDS011;7177;48.572;7.838;2022-12-05T13:26:27;14.57;;;9.67;;
14191;SDS011;7177;48.572;7.838;2022-12-05T13:28:54;13.27;;;9.40;;
14191;SDS011;7177;48.572;7.838;2022-12-05T13:31:39;16.13;;;9.37;;
14191;SDS011;7177;48.572;7.838;2022-12-05T13:40:20;11.97;;;8.70;;
14191;SDS011;7177;48.572;7.838;2022-12-05T13:43:20;13.77;;;9.73;;
14191;SDS011;7177;48.572;7.838;2022-12-05T13:48:32;13.93;;;9.57;;
14191;SDS011;7177;48.572;7.838;2022-12-05T13:51:11;15.70;;;10.27;;
14191;SDS011;7177;48.572;7.838;2022-12-05T13:53:46;13.10;;;9.30;;
14191;SDS011;7177;48.572;7.838;2022-12-05T14:04:01;14.30;;;10.13;;
14191;SDS011;7177;48.572;7.838;2022-12-05T14:09:00;15.37;;;10.60;;
14191;SDS011;7177;48.572;7.838;2022-12-05T14:11:27;14.00;;;10.27;;
14191;SDS011;7177;48.572;7.838;2022-12-05T14:13:52;12.77;;;9.23;;
14191;SDS011;7177;48.572;7.838;2022-12-05T14:29:46;13.40;;;9.87;;
14191;SDS011;7177;48.572;7.838;2022-12-05T14:32:38;12.87;;;9.30;;
14191;SDS011;7177;48.572;7.838;2022-12-05T14:37:55;11.70;;;8.53;;
14191;SDS011;7177;48.572;7.838;2022-12-05T14:40:32;11.50;;;8.53;;
14191;SDS011;7177;48.572;7.838;2022-12-05T14:43:25;11.00;;;7.60;;
14191;SDS011;7177;48.572;7.838;2022-12-05T14:45:58;13.73;;;10.10;;
14191;SDS011;7177;48.572;7.838;2022-12-05T14:50:54;17.33;;;11.40;;
14191;SDS011;7177;48.572;7.838;2022-12-05T14:53:36;21.60;;;13.13;;
14191;SDS011;7177;48.572;7.838;2022-12-05T14:56:14;19.70;;;11.77;;
14191;SDS011;7177;48.572;7.838;2022-12-05T14:59:02;19.57;;;12.40;;
14191;SDS011;7177;48.572;7.838;2022-12-05T15:01:33;22.77;;;13.87;;
14191;SDS011;7177;48.572;7.838;2022-12-05T15:04:13;16.03;;;11.53;;
14191;SDS011;7177;48.572;7.838;2022-12-05T15:07:03;13.17;;;9.73;;
14191;SDS011;7177;48.572;7.838;2022-12-05T15:09:53;15.57;;;10.27;;
14191;SDS011;7177;48.572;7.838;2022-12-05T15:15:22;32.27;;;17.33;;
14191;SDS011;7177;48.572;7.838;2022-12-05T15:20:53;45.30;;;20.60;;
14191;SDS011;7177;48.572;7.838;2022-12-05T15:23:42;38.30;;;18.80;;
14191;SDS011;7177;48.572;7.838;2022-12-05T15:34:41;15.60;;;11.03;;
14191;SDS011;7177;48.572;7.838;2022-12-05T15:37:17;13.30;;;9.33;;
14191;SDS011;7177;48.572;7.838;2022-12-05T15:42:15;15.80;;;10.80;;
14191;SDS011;7177;48.572;7.838;2022-12-05T15:44:41;20.10;;;12.83;;
14191;SDS011;7177;48.572;7.838;2022-12-05T15:47:18;20.67;;;11.80;;
14191;SDS011;7177;48.572;7.838;2022-12-05T15:49:48;23.20;;;14.97;;
14191;SDS011;7177;48.572;7.838;2022-12-05T15:54:49;25.10;;;15.47;;
14191;SDS011;7177;48.572;7.838;2022-12-05T15:57:19;20.93;;;13.67;;
14191;SDS011;7177;48.572;7.838;2022-12-05T15:59:55;20.53;;;14.70;;
14191;SDS011;7177;48.572;7.838;2022-12-05T16:02:38;17.97;;;12.13;;
14191;SDS011;7177;48.572;7.838;2022-12-05T16:05:16;16.87;;;11.73;;
14191;SDS011;7177;48.572;7.838;2022-12-05T16:07:46;23.90;;;16.87;;
14191;SDS011;7177;48.572;7.838;2022-12-05T16:10:14;27.07;;;17.07;;
14191;SDS011;7177;48.572;7.838;2022-12-05T16:12:40;22.37;;;15.83;;
14191;SDS011;7177;48.572;7.838;2022-12-05T16:15:10;24.47;;;17.03;;
14191;SDS011;7177;48.572;7.838;2022-12-05T16:17:46;25.83;;;18.27;;
14191;SDS011;7177;48.572;7.838;2022-12-05T16:22:46;42.73;;;29.50;;
14191;SDS011;7177;48.572;7.838;2022-12-05T16:25:14;32.80;;;24.07;;
14191;SDS011;7177;48.572;7.838;2022-12-05T16:28:00;29.47;;;23.10;;
14191;SDS011;7177;48.572;7.838;2022-12-05T16:30:32;35.10;;;26.10;;
14191;SDS011;7177;48.572;7.838;2022-12-05T16:33:03;40.50;;;29.13;;
14191;SDS011;7177;48.572;7.838;2022-12-05T16:40:48;38.53;;;27.77;;
14191;SDS011;7177;48.572;7.838;2022-12-05T16:43:18;34.73;;;26.60;;
14191;SDS011;7177;48.572;7.838;2022-12-05T16:45:51;32.50;;;24.50;;
14191;SDS011;7177;48.572;7.838;2022-12-05T16:48:23;31.60;;;23.53;;
14191;SDS011;7177;48.572;7.838;2022-12-05T16:53:37;34.53;;;24.87;;
14191;SDS011;7177;48.572;7.838;2022-12-05T16:56:05;27.87;;;22.13;;
14191;SDS011;7177;48.572;7.838;2022-12-05T16:58:32;32.30;;;21.83;;
14191;SDS011;7177;48.572;7.838;2022-12-05T17:01:00;26.00;;;19.60;;
14191;SDS011;7177;48.572;7.838;2022-12-05T17:03:28;26.13;;;20.37;;
14191;SDS011;7177;48.572;7.838;2022-12-05T17:05:55;21.93;;;16.60;;
14191;SDS011;7177;48.572;7.838;2022-12-05T17:08:21;21.80;;;15.90;;
14191;SDS011;7177;48.572;7.838;2022-12-05T17:10:47;18.17;;;14.07;;
14191;SDS011;7177;48.572;7.838;2022-12-05T17:13:14;19.33;;;14.23;;
14191;SDS011;7177;48.572;7.838;2022-12-05T17:15:41;18.97;;;14.87;;
14191;SDS011;7177;48.572;7.838;2022-12-05T17:18:10;18.20;;;14.70;;
14191;SDS011;7177;48.572;7.838;2022-12-05T17:20:42;25.50;;;19.53;;
14191;SDS011;7177;48.572;7.838;2022-12-05T17:23:11;20.83;;;16.80;;
14191;SDS011;7177;48.572;7.838;2022-12-05T17:25:43;19.80;;;15.87;;
14191;SDS011;7177;48.572;7.838;2022-12-05T17:28:13;24.63;;;17.03;;
14191;SDS011;7177;48.572;7.838;2022-12-05T17:30:38;20.97;;;16.57;;
14191;SDS011;7177;48.572;7.838;2022-12-05T17:33:04;22.73;;;17.60;;
14191;SDS011;7177;48.572;7.838;2022-12-05T17:35:31;21.20;;;16.80;;
14191;SDS011;7177;48.572;7.838;2022-12-05T17:37:57;21.30;;;17.13;;
14191;SDS011;7177;48.572;7.838;2022-12-05T17:40:22;18.00;;;14.73;;
14191;SDS011;7177;48.572;7.838;2022-12-05T17:42:48;19.67;;;15.63;;
14191;SDS011;7177;48.572;7.838;2022-12-05T17:45:15;21.87;;;17.30;;
14191;SDS011;7177;48.572;7.838;2022-12-05T17:47:41;23.17;;;18.73;;
14191;SDS011;7177;48.572;7.838;2022-12-05T17:50:11;21.57;;;17.30;;
14191;SDS011;7177;48.572;7.838;2022-12-05T17:52:38;24.07;;;17.40;;
14191;SDS011;7177;48.572;7.838;2022-12-05T17:55:04;24.23;;;17.23;;
14191;SDS011;7177;48.572;7.838;2022-12-05T17:57:30;21.97;;;16.50;;
14191;SDS011;7177;48.572;7.838;2022-12-05T17:59:56;22.63;;;15.93;;
14191;SDS011;7177;48.572;7.838;2022-12-05T18:02:22;16.83;;;14.13;;
14191;SDS011;7177;48.572;7.838;2022-12-05T18:04:47;18.57;;;14.40;;
14191;SDS011;7177;48.572;7.838;2022-12-05T18:07:13;16.70;;;14.23;;
14191;SDS011;7177;48.572;7.838;2022-12-05T18:09:39;16.20;;;13.53;;
14191;SDS011;7177;48.572;7.838;2022-12-05T18:12:04;15.83;;;12.87;;
14191;SDS011;7177;48.572;7.838;2022-12-05T18:14:30;17.43;;;13.83;;
14191;SDS011;7177;48.572;7.838;2022-12-05T18:17:00;17.40;;;13.13;;
14191;SDS011;7177;48.572;7.838;2022-12-05T18:19:26;16.83;;;14.20;;